Time;durP1;ratioP1;P1;durP2;ratioP2;P2;SDS_P1;SDS_P2;PMS_P1;PMS_P2;Temp;Humidity;BMP_temperature;BMP_pressure;BME280_temperature;BME280_humidity;BME280_pressure;Samples;Min_cycle;Max_cycle;Signal;HPM_P1;HPM_P2
2021/09/12 00:01:51;;;;;;;15.60;9.93;;;;;;;16.30;77.35;100243.39;2163114;80;21472;-79
2021/09/12 00:04:52;;;;;;;14.47;10.75;;;;;;;16.26;77.17;100242.98;2177114;80;21012;-80
2021/09/12 00:07:53;;;;;;;14.30;10.40;;;;;;;16.23;77.31;100241.22;2172347;80;21071;-84
2021/09/12 00:10:55;;;;;;;16.52;10.40;;;;;;;16.19;77.09;100241.30;2167446;80;21013;-80
2021/09/12 00:13:56;;;;;;;17.65;9.75;;;;;;;16.16;77.23;100239.84;2167719;80;20957;-82
2021/09/12 00:16:57;;;;;;;12.73;9.63;;;;;;;16.12;77.11;100238.60;2170958;80;21028;-79
2021/09/12 00:19:58;;;;;;;13.00;10.00;;;;;;;16.08;77.07;100236.03;2169765;80;20957;-79
2021/09/12 00:23:00;;;;;;;19.12;12.23;;;;;;;16.06;77.23;100246.92;2167788;80;21026;-79
2021/09/12 00:26:01;;;;;;;15.23;10.43;;;;;;;16.07;77.30;100243.72;2166008;80;21023;-77
2021/09/12 00:29:03;;;;;;;17.17;11.90;;;;;;;16.04;77.14;100244.95;2174057;80;20988;-80
2021/09/12 00:32:05;;;;;;;15.83;11.75;;;;;;;16.02;77.31;100243.48;2168341;80;20975;-82
2021/09/12 00:35:09;;;;;;;14.93;11.73;;;;;;;16.03;77.68;100239.81;2176880;80;21066;-79
2021/09/12 00:38:12;;;;;;;13.78;11.60;;;;;;;16.01;77.66;100239.99;2174352;80;20931;-79
2021/09/12 00:41:13;;;;;;;12.25;10.93;;;;;;;15.98;77.45;100240.39;2168987;80;20988;-82
2021/09/12 00:44:16;;;;;;;14.45;10.95;;;;;;;15.96;77.63;100237.60;2171753;80;21480;-82
2021/09/12 00:47:17;;;;;;;14.58;10.28;;;;;;;15.91;77.45;100235.55;2174814;80;21551;-78
2021/09/12 00:50:19;;;;;;;15.85;10.43;;;;;;;15.85;77.25;100234.97;2170146;80;21490;-82
2021/09/12 00:53:22;;;;;;;12.93;9.85;;;;;;;15.78;77.27;100234.13;2165636;80;21466;-78
2021/09/12 00:56:23;;;;;;;13.20;10.23;;;;;;;15.72;77.29;100233.07;2165981;80;21064;-80
2021/09/12 00:59:27;;;;;;;14.28;10.13;;;;;;;15.69;77.38;100234.80;2182730;80;21012;-82
2021/09/12 01:02:29;;;;;;;13.45;10.03;;;;;;;15.65;77.48;100229.00;2149665;80;21454;-79
2021/09/12 01:05:29;;;;;;;14.07;10.63;;;;;;;15.63;77.43;100227.55;2153561;80;20985;-81
2021/09/12 01:08:31;;;;;;;10.50;9.28;;;;;;;15.57;77.29;100237.66;2149278;80;21022;-78
2021/09/12 01:11:33;;;;;;;12.98;10.25;;;;;;;15.50;77.40;100229.61;2142043;80;21482;-81
2021/09/12 01:14:35;;;;;;;13.28;9.13;;;;;;;15.49;77.34;100229.83;2145538;80;21049;-81
2021/09/12 01:17:37;;;;;;;141.12;11.73;;;;;;;15.41;77.43;100236.14;2150731;80;21064;-80
2021/09/12 01:20:39;;;;;;;34.85;9.95;;;;;;;15.34;77.46;100237.93;2152466;80;21009;-80
2021/09/12 01:23:40;;;;;;;111.35;10.78;;;;;;;15.29;77.35;100235.86;2149001;80;20992;-83
2021/09/12 01:26:42;;;;;;;9.18;7.53;;;;;;;15.22;77.49;100237.64;2155005;80;21545;-81
2021/09/12 01:29:43;;;;;;;11.95;10.43;;;;;;;15.16;77.57;100239.24;2143952;80;21041;-82
2021/09/12 01:32:44;;;;;;;12.43;8.65;;;;;;;15.10;77.21;100232.52;2146905;80;21028;-82
2021/09/12 01:35:45;;;;;;;21.05;6.40;;;;;;;15.08;77.41;100236.70;2153185;80;21037;-83
2021/09/12 01:38:47;;;;;;;386.48;13.45;;;;;;;15.06;77.53;100236.06;2146158;80;20978;-78
2021/09/12 01:41:48;;;;;;;7.60;6.80;;;;;;;14.96;77.87;100235.59;2155025;80;21061;-83
2021/09/12 01:44:51;;;;;;;17.60;6.40;;;;;;;14.88;77.87;100230.37;2149813;80;21477;-81
2021/09/12 01:47:58;;;;;;;48.87;7.35;;;;;;;14.77;77.64;100234.38;2152873;80;21059;-78
2021/09/12 01:50:55;;;;;;;32.58;6.95;;;;;;;14.67;77.79;100233.37;2148576;80;21481;-82
2021/09/12 01:53:56;;;;;;;119.87;7.80;;;;;;;14.59;78.04;100233.50;2152650;80;21060;-81
2021/09/12 01:56:57;;;;;;;29.50;5.90;;;;;;;14.55;78.18;100234.36;2150902;80;20961;-82
2021/09/12 01:59:58;;;;;;;22.02;8.60;;;;;;;14.50;78.32;100238.11;2156881;80;20997;-81
2021/09/12 02:02:59;;;;;;;9.40;8.25;;;;;;;14.43;78.36;100241.71;2163956;80;21038;-81
2021/09/12 02:06:02;;;;;;;9.45;7.90;;;;;;;14.43;78.55;100241.20;2170392;80;21032;-81
2021/09/12 02:09:03;;;;;;;11.08;7.60;;;;;;;14.42;78.11;100245.41;2164276;80;20982;-80
2021/09/12 02:12:05;;;;;;;8.75;7.92;;;;;;;14.35;77.71;100239.47;2169689;80;21501;-77
2021/09/12 02:15:07;;;;;;;16.73;8.38;;;;;;;14.26;77.62;100237.11;2165309;80;20994;-82
2021/09/12 02:18:09;;;;;;;9.70;8.58;;;;;;;14.21;77.78;100235.51;2163166;80;20966;-80
2021/09/12 02:21:10;;;;;;;6.85;6.12;;;;;;;14.17;77.90;100241.73;2163783;80;21067;-81
2021/09/12 02:24:11;;;;;;;11.68;7.12;;;;;;;14.12;77.67;100244.95;2163130;80;21026;-84
2021/09/12 02:27:13;;;;;;;7.15;6.45;;;;;;;14.11;77.80;100243.82;2163419;80;21036;-80
2021/09/12 02:30:14;;;;;;;6.35;5.75;;;;;;;14.13;78.31;100245.77;2169124;80;21005;-82
2021/09/12 02:33:15;;;;;;;7.47;6.08;;;;;;;14.10;78.10;100245.63;2163333;80;21006;-81
2021/09/12 02:36:16;;;;;;;11.18;6.03;;;;;;;14.10;78.06;100246.14;2165930;80;21045;-79
2021/09/12 02:39:17;;;;;;;9.83;6.42;;;;;;;14.09;78.14;100241.84;2164823;80;20999;-81
2021/09/12 02:42:19;;;;;;;7.60;6.05;;;;;;;14.07;78.23;100235.34;2166411;80;20948;-83
2021/09/12 02:45:20;;;;;;;6.80;6.10;;;;;;;14.02;77.90;100236.91;2160495;80;21491;-80
2021/09/12 02:48:21;;;;;;;6.72;6.03;;;;;;;14.01;78.09;100236.60;2163733;80;21040;-82
2021/09/12 02:51:23;;;;;;;7.42;6.53;;;;;;;14.00;78.18;100238.96;2166356;80;21060;-82
2021/09/12 02:54:24;;;;;;;17.48;7.15;;;;;;;13.96;77.75;100241.66;2171613;80;20921;-80
2021/09/12 02:57:25;;;;;;;10.10;6.65;;;;;;;13.92;77.90;100240.39;2162852;80;21492;-83
2021/09/12 03:00:27;;;;;;;7.62;6.83;;;;;;;13.89;77.86;100234.92;2167642;80;20934;-77
2021/09/12 03:03:28;;;;;;;11.78;6.92;;;;;;;13.87;77.82;100239.60;2169330;80;21204;-79
2021/09/12 03:06:29;;;;;;;6.83;6.03;;;;;;;13.80;77.84;100238.19;2154782;80;21527;-82
2021/09/12 03:09:30;;;;;;;7.17;6.53;;;;;;;13.79;77.90;100239.19;2154788;80;22084;-80
2021/09/12 03:12:31;;;;;;;6.87;6.17;;;;;;;13.74;78.23;100237.60;2152426;80;21415;-78
2021/09/12 03:15:32;;;;;;;6.55;5.75;;;;;;;13.72;78.31;100238.28;2158749;80;20967;-81
2021/09/12 03:18:33;;;;;;;7.65;6.45;;;;;;;13.69;78.27;100233.32;2166853;80;20973;-80
2021/09/12 03:21:35;;;;;;;10.72;9.63;;;;;;;13.73;78.68;100241.26;2159362;80;21559;-79
2021/09/12 03:24:36;;;;;;;11.63;7.37;;;;;;;13.78;79.00;100244.20;2153033;80;20988;-79
2021/09/12 03:27:37;;;;;;;8.83;7.60;;;;;;;13.80;78.87;100240.04;2150523;80;21044;-79
2021/09/12 03:30:39;;;;;;;7.22;6.53;;;;;;;13.80;78.82;100248.86;2149795;80;21049;-81
2021/09/12 03:33:40;;;;;;;9.88;7.05;;;;;;;13.77;78.61;100247.90;2160212;80;21079;-79
2021/09/12 03:36:41;;;;;;;10.82;6.05;;;;;;;13.76;78.74;100252.06;2155857;80;20995;-80
2021/09/12 03:39:42;;;;;;;6.80;6.20;;;;;;;13.69;78.61;100246.66;2166777;80;21031;-82
2021/09/12 03:42:44;;;;;;;10.70;7.10;;;;;;;13.65;78.69;100249.34;2151036;80;20949;-79
2021/09/12 03:45:44;;;;;;;7.45;6.78;;;;;;;13.62;78.76;100249.72;2159894;80;21366;-81
2021/09/12 03:48:45;;;;;;;8.98;6.42;;;;;;;13.61;78.85;100248.08;2160202;80;21053;-81
2021/09/12 03:51:47;;;;;;;9.23;5.65;;;;;;;13.61;78.82;100254.23;2155920;80;21021;-79
2021/09/12 03:54:48;;;;;;;7.55;6.80;;;;;;;13.61;78.57;100253.41;2158792;80;20965;-79
2021/09/12 03:57:49;;;;;;;9.25;6.97;;;;;;;13.58;78.55;100255.11;2154379;80;20993;-83
2021/09/12 04:00:50;;;;;;;9.50;6.50;;;;;;;13.55;78.55;100256.30;2157907;80;20983;-81
2021/09/12 04:03:51;;;;;;;10.00;6.40;;;;;;;13.54;78.54;100251.13;2158730;80;21385;-79
2021/09/12 04:06:53;;;;;;;8.33;6.40;;;;;;;13.55;78.65;100251.48;2156347;80;21017;-80
2021/09/12 04:09:54;;;;;;;6.85;5.60;;;;;;;13.54;78.40;100257.80;2162077;80;21308;-78
2021/09/12 04:12:55;;;;;;;8.18;5.60;;;;;;;13.49;78.30;100255.70;2157530;80;21009;-80
2021/09/12 04:15:56;;;;;;;6.87;5.65;;;;;;;13.49;78.44;100245.03;2156447;80;21474;-82
2021/09/12 04:18:57;;;;;;;10.78;6.30;;;;;;;13.51;78.53;100248.84;2164939;80;21001;-81
2021/09/12 04:21:58;;;;;;;7.67;6.25;;;;;;;13.50;78.37;100252.52;2153399;80;20956;-82
2021/09/12 04:24:59;;;;;;;7.08;6.30;;;;;;;13.48;78.32;100246.53;2153653;80;21466;-82
2021/09/12 04:28:00;;;;;;;11.25;7.25;;;;;;;13.50;78.43;100253.86;2159053;80;20989;-81
2021/09/12 04:31:01;;;;;;;8.25;7.17;;;;;;;13.50;78.50;100257.34;2162970;80;20998;-83
2021/09/12 04:34:03;;;;;;;11.97;7.97;;;;;;;13.55;78.68;100250.97;2165606;80;21021;-81
2021/09/12 04:37:04;;;;;;;8.68;7.40;;;;;;;13.58;78.87;100253.27;2158543;80;21024;-78
2021/09/12 04:40:07;;;;;;;9.08;7.40;;;;;;;13.61;79.00;100257.41;2156655;80;20978;-82
2021/09/12 04:43:08;;;;;;;9.40;7.78;;;;;;;13.65;79.23;100261.34;2157822;80;21187;-78
2021/09/12 04:46:10;;;;;;;11.00;7.80;;;;;;;13.70;79.37;100262.14;2152943;80;21004;-78
2021/09/12 04:49:11;;;;;;;13.15;7.62;;;;;;;13.73;79.37;100265.26;2162258;80;21061;-80
2021/09/12 04:52:12;;;;;;;12.73;10.43;;;;;;;13.78;79.52;100261.55;2157280;80;21499;-82
2021/09/12 04:55:13;;;;;;;10.10;9.10;;;;;;;13.83;79.74;100267.16;2161434;80;21286;-81
2021/09/12 04:58:14;;;;;;;10.90;8.43;;;;;;;13.88;79.66;100264.77;2166061;80;20997;-80
2021/09/12 05:01:16;;;;;;;7.92;6.95;;;;;;;13.92;79.64;100264.39;2161261;80;20950;-79
2021/09/12 05:04:17;;;;;;;12.47;9.20;;;;;;;13.95;79.61;100257.36;2163741;80;21005;-81
2021/09/12 05:07:19;;;;;;;11.95;9.38;;;;;;;13.95;79.43;100259.52;2167504;80;21044;-80
2021/09/12 05:10:21;;;;;;;9.50;8.28;;;;;;;14.00;79.59;100264.30;2159857;80;21048;-79
2021/09/12 05:13:22;;;;;;;9.15;8.23;;;;;;;14.09;79.76;100263.18;2158918;80;21070;-81
2021/09/12 05:16:23;;;;;;;15.78;9.55;;;;;;;14.16;79.84;100260.58;2170153;80;20994;-79
2021/09/12 05:19:24;;;;;;;14.63;10.05;;;;;;;14.26;80.11;100267.80;2171232;80;20976;-79
2021/09/12 05:22:25;;;;;;;13.95;11.03;;;;;;;14.35;80.20;100263.48;2167496;80;21457;-83
2021/09/12 05:25:26;;;;;;;16.27;11.43;;;;;;;14.47;80.41;100269.67;2164030;80;21430;-79
2021/09/12 05:28:27;;;;;;;11.83;10.60;;;;;;;14.65;80.63;100270.64;2166054;80;21028;-82
2021/09/12 05:31:28;;;;;;;15.50;11.25;;;;;;;14.84;80.53;100269.16;2165096;80;21014;-79
2021/09/12 05:34:31;;;;;;;14.83;11.57;;;;;;;14.94;80.43;100265.67;2167226;80;21029;-78
2021/09/12 05:37:32;;;;;;;18.15;13.03;;;;;;;15.13;80.55;100273.55;2164385;80;21072;-78
2021/09/12 05:40:33;;;;;;;14.50;13.00;;;;;;;15.27;80.45;100265.95;2165727;80;21115;-81
2021/09/12 05:43:35;;;;;;;16.42;12.65;;;;;;;15.42;80.41;100270.69;2165270;80;21024;-79
2021/09/12 05:46:36;;;;;;;16.15;13.62;;;;;;;15.58;80.37;100268.23;2163177;80;21495;-77
2021/09/12 05:49:37;;;;;;;16.37;13.05;;;;;;;15.72;80.26;100266.50;2165925;80;21701;-79
2021/09/12 05:52:39;;;;;;;15.00;13.48;;;;;;;15.82;80.22;100270.15;2166305;80;20969;-79
2021/09/12 05:55:40;;;;;;;14.98;13.38;;;;;;;15.94;80.20;100263.72;2167623;80;21021;-80
2021/09/12 05:58:41;;;;;;;16.45;13.53;;;;;;;16.04;80.21;100265.02;2169403;80;21337;-81
2021/09/12 06:01:42;;;;;;;17.50;14.53;;;;;;;16.18;80.17;100266.42;2161475;80;21049;-80
2021/09/12 06:04:44;;;;;;;16.02;13.70;;;;;;;16.31;80.19;100269.16;2161840;80;22110;-82
2021/09/12 06:07:45;;;;;;;17.73;13.90;;;;;;;16.45;80.16;100269.52;2157337;80;20992;-81
2021/09/12 06:10:47;;;;;;;18.35;13.68;;;;;;;16.54;80.08;100262.94;2159108;80;21499;-82
2021/09/12 06:13:48;;;;;;;18.80;14.55;;;;;;;16.62;80.06;100264.61;2151449;80;20976;-81
2021/09/12 06:16:49;;;;;;;17.07;14.40;;;;;;;16.72;80.13;100265.55;2154874;80;21021;-80
2021/09/12 06:19:50;;;;;;;17.90;14.18;;;;;;;16.85;80.03;100269.62;2148446;80;21426;-78
2021/09/12 06:22:53;;;;;;;17.35;13.88;;;;;;;16.97;79.86;100266.64;2158186;80;20966;-79
2021/09/12 06:25:54;;;;;;;16.62;14.53;;;;;;;17.08;79.82;100274.59;2154678;80;20967;-79
2021/09/12 06:28:56;;;;;;;16.93;15.13;;;;;;;17.20;79.65;100284.19;2161714;80;20969;-81
2021/09/12 06:31:57;;;;;;;17.77;15.88;;;;;;;17.25;79.44;100285.22;2158589;80;21053;-80
2021/09/12 06:34:59;;;;;;;18.52;15.63;;;;;;;17.31;79.44;100284.91;2156405;80;21015;-81
2021/09/12 06:38:00;;;;;;;15.72;13.95;;;;;;;17.38;79.47;100291.11;2160508;80;21509;-81
2021/09/12 06:41:02;;;;;;;15.18;12.82;;;;;;;17.44;79.42;100290.27;2155050;80;21696;-77
2021/09/12 06:44:04;;;;;;;17.73;14.18;;;;;;;17.51;79.31;100292.94;2155345;80;21548;-77
2021/09/12 06:47:06;;;;;;;21.25;14.03;;;;;;;17.58;79.29;100295.63;2157968;80;21016;-76
2021/09/12 06:50:08;;;;;;;15.23;13.13;;;;;;;17.63;79.20;100291.81;2154268;80;20999;-82
2021/09/12 06:53:09;;;;;;;21.40;15.03;;;;;;;17.67;79.00;100295.19;2159063;80;21471;-81
2021/09/12 06:56:10;;;;;;;15.38;13.78;;;;;;;17.74;78.92;100293.01;2157178;80;21506;-80
2021/09/12 06:59:11;;;;;;;16.77;14.58;;;;;;;17.78;78.82;100290.23;2162336;80;20982;-77
2021/09/12 07:02:12;;;;;;;15.83;13.75;;;;;;;17.82;78.94;100290.98;2164822;80;21031;-78
2021/09/12 07:05:14;;;;;;;19.85;14.83;;;;;;;17.85;78.76;100297.27;2156167;80;21029;-80
2021/09/12 07:08:15;;;;;;;15.88;14.28;;;;;;;17.89;78.84;100291.78;2163800;80;20989;-80
2021/09/12 07:11:16;;;;;;;18.02;14.85;;;;;;;17.94;78.73;100293.84;2154555;80;21474;-76
2021/09/12 07:14:17;;;;;;;18.07;15.10;;;;;;;18.02;78.84;100294.11;2163996;80;21010;-77
2021/09/12 07:17:18;;;;;;;18.02;15.93;;;;;;;18.11;79.04;100292.34;2160950;80;21008;-78
2021/09/12 07:20:20;;;;;;;19.60;16.65;;;;;;;18.25;78.87;100290.95;2150990;80;20997;-79
2021/09/12 07:23:21;;;;;;;20.17;15.65;;;;;;;18.42;79.01;100299.36;2163756;80;21012;-79
2021/09/12 07:26:22;;;;;;;18.20;15.70;;;;;;;18.50;78.72;100301.28;2156467;80;21059;-78
2021/09/12 07:29:23;;;;;;;18.07;15.70;;;;;;;18.66;78.74;100301.28;2158143;80;21008;-79
2021/09/12 07:32:24;;;;;;;19.62;16.37;;;;;;;18.86;78.52;100303.06;2164105;80;21698;-80
2021/09/12 07:35:26;;;;;;;19.07;17.07;;;;;;;18.93;78.18;100301.98;2159782;80;20955;-77
2021/09/12 07:38:27;;;;;;;18.55;16.60;;;;;;;18.95;78.05;100301.25;2148098;80;21063;-79
2021/09/12 07:41:29;;;;;;;21.10;17.37;;;;;;;19.00;77.98;100301.92;2153237;80;21043;-75
2021/09/12 07:44:30;;;;;;;21.80;18.45;;;;;;;19.04;77.97;100305.32;2154580;80;20973;-78
2021/09/12 07:47:33;;;;;;;22.73;18.25;;;;;;;19.18;78.09;100310.61;2153874;80;21091;-79
2021/09/12 07:50:34;;;;;;;19.70;17.57;;;;;;;19.30;77.77;100317.45;2167401;80;20938;-77
2021/09/12 07:53:35;;;;;;;23.07;17.45;;;;;;;19.39;77.55;100308.87;2155661;80;20967;-79
2021/09/12 07:56:37;;;;;;;24.35;18.10;;;;;;;19.57;77.60;100316.68;2159732;80;21471;-79
2021/09/12 07:59:38;;;;;;;22.70;17.95;;;;;;;19.75;77.56;100313.25;2159391;80;20968;-80
2021/09/12 08:02:40;;;;;;;20.65;16.80;;;;;;;19.99;77.46;100320.95;2152407;80;21055;-78
2021/09/12 08:05:41;;;;;;;20.35;16.75;;;;;;;20.20;76.96;100314.32;2146197;81;21542;-76
2021/09/12 08:08:42;;;;;;;21.05;17.80;;;;;;;20.28;76.56;100312.14;2150569;81;21618;-77
2021/09/12 08:11:43;;;;;;;20.62;17.17;;;;;;;20.34;75.97;100313.11;2149760;81;21044;-78
2021/09/12 08:14:45;;;;;;;18.55;16.35;;;;;;;20.47;76.13;100308.91;2149941;81;21047;-78
2021/09/12 08:17:46;;;;;;;20.25;16.80;;;;;;;20.60;75.51;100309.27;2150246;81;21432;-77
2021/09/12 08:20:47;;;;;;;19.12;16.75;;;;;;;20.73;75.24;100304.23;2150553;81;21041;-80
2021/09/12 08:23:48;;;;;;;17.87;15.35;;;;;;;20.89;74.81;100304.95;2148708;81;20989;-79
2021/09/12 08:26:49;;;;;;;19.40;16.20;;;;;;;21.03;74.73;100309.09;2151633;81;20972;-79
2021/09/12 08:29:50;;;;;;;21.37;16.48;;;;;;;21.19;74.28;100308.92;2144653;81;20953;-79
2021/09/12 08:32:52;;;;;;;19.87;17.17;;;;;;;21.20;73.46;100311.94;2151008;80;21472;-78
2021/09/12 08:35:53;;;;;;;21.82;17.80;;;;;;;21.26;73.82;100318.28;2148916;80;21492;-80
2021/09/12 08:38:55;;;;;;;22.60;17.70;;;;;;;21.48;73.36;100323.95;2148459;80;20984;-77
2021/09/12 08:41:56;;;;;;;23.30;18.67;;;;;;;21.74;73.18;100325.39;2146937;81;21495;-81
2021/09/12 08:44:58;;;;;;;19.92;16.67;;;;;;;21.78;72.14;100318.98;2149827;81;21009;-77
2021/09/12 08:48:00;;;;;;;22.87;17.67;;;;;;;22.00;72.44;100320.55;2148931;81;21484;-77
2021/09/12 08:51:02;;;;;;;24.15;17.85;;;;;;;22.44;71.61;100327.69;2151146;81;21009;-77
2021/09/12 08:54:03;;;;;;;19.30;17.23;;;;;;;22.78;71.09;100321.34;2148336;80;21008;-78
2021/09/12 08:57:05;;;;;;;20.95;17.45;;;;;;;22.94;70.03;100326.48;2148301;81;21060;-76
2021/09/12 09:00:13;;;;;;;20.40;17.65;;;;;;;23.21;69.88;100328.61;2147345;81;21142;-81
2021/09/12 09:03:14;;;;;;;19.67;17.25;;;;;;;23.39;68.98;100318.87;2151312;81;21036;-76
2021/09/12 09:06:19;;;;;;;19.15;15.75;;;;;;;23.55;68.22;100328.08;2151482;81;21004;-77
2021/09/12 09:09:20;;;;;;;17.85;15.80;;;;;;;23.68;68.01;100326.39;2148108;81;20984;-80
2021/09/12 09:12:37;;;;;;;18.30;15.95;;;;;;;23.79;67.75;100317.88;2148348;81;21017;-80
2021/09/12 09:15:41;;;;;;;17.75;15.20;;;;;;;24.02;67.63;100328.22;2154363;81;20990;-77
2021/09/12 09:18:42;;;;;;;18.77;15.93;;;;;;;24.24;66.24;100329.59;2147662;80;21448;-79
2021/09/12 09:21:47;;;;;;;18.02;15.13;;;;;;;24.43;66.08;100328.23;2144084;81;21016;-79
2021/09/12 09:24:48;;;;;;;16.42;14.23;;;;;;;24.66;65.91;100320.89;2150615;81;21504;-77
2021/09/12 09:28:03;;;;;;;15.30;13.70;;;;;;;24.85;65.18;100323.53;2150817;81;21159;-77
2021/09/12 09:31:08;;;;;;;16.45;14.63;;;;;;;24.94;64.78;100309.77;2147246;81;20957;-82
2021/09/12 09:34:20;;;;;;;17.05;13.95;;;;;;;24.98;64.50;100316.89;2151130;81;21041;-79
2021/09/12 09:37:21;;;;;;;16.27;13.62;;;;;;;25.07;63.74;100307.73;2147129;81;21086;-81
2021/09/12 09:40:25;;;;;;;15.90;13.93;;;;;;;25.32;63.79;100312.59;2147342;81;21500;-81
2021/09/12 09:43:45;;;;;;;15.55;13.38;;;;;;;25.57;63.30;100313.33;2149482;81;21031;-80
2021/09/12 09:46:48;;;;;;;15.25;13.50;;;;;;;25.51;62.88;100309.75;2148328;80;21479;-80
2021/09/12 09:50:07;;;;;;;15.40;13.65;;;;;;;25.72;62.03;100307.97;2150449;80;21004;-78
2021/09/12 09:53:12;;;;;;;16.90;13.00;;;;;;;25.80;62.13;100299.33;2146508;81;21409;-79
2021/09/12 09:56:14;;;;;;;14.33;12.82;;;;;;;25.90;61.80;100299.42;2145360;80;21016;-76
2021/09/12 09:59:18;;;;;;;14.63;11.28;;;;;;;25.76;60.84;100296.84;2147556;81;21103;-79
2021/09/12 10:02:20;;;;;;;18.37;10.75;;;;;;;25.68;60.88;100303.61;2148608;81;21044;-78
2021/09/12 10:05:21;;;;;;;12.28;9.43;;;;;;;25.79;60.82;100289.55;2170479;80;21030;-78
2021/09/12 10:08:24;;;;;;;12.20;10.32;;;;;;;25.94;60.55;100289.64;2170347;80;21596;-80
2021/09/12 10:11:26;;;;;;;10.70;9.53;;;;;;;26.00;59.52;100284.23;2175066;80;21036;-78
2021/09/12 10:14:42;;;;;;;9.83;8.93;;;;;;;26.02;59.63;100278.00;2166563;80;20946;-79
2021/09/12 10:17:45;;;;;;;10.78;9.75;;;;;;;26.15;58.71;100282.38;2168496;80;21060;-77
2021/09/12 10:20:46;;;;;;;9.48;8.48;;;;;;;26.09;59.24;100279.38;2169637;80;20969;-82
2021/09/12 10:24:07;;;;;;;11.03;9.18;;;;;;;25.96;58.81;100279.04;2171200;80;21104;-79
2021/09/12 10:27:46;;;;;;;9.65;8.68;;;;;;;25.91;58.85;100277.95;2168355;80;21474;-80
2021/09/12 10:30:48;;;;;;;9.40;8.25;;;;;;;26.12;58.05;100276.67;2168140;80;21031;-80
2021/09/12 10:34:10;;;;;;;13.95;8.73;;;;;;;26.25;57.71;100271.29;2171647;80;21486;-79
2021/09/12 10:37:30;;;;;;;10.90;8.95;;;;;;;26.19;57.57;100278.61;2172132;80;20952;-78
2021/09/12 10:40:53;;;;;;;9.53;8.35;;;;;;;26.29;57.86;100274.55;2167555;80;21473;-79
2021/09/12 10:43:56;;;;;;;9.30;8.03;;;;;;;26.47;56.58;100274.62;2164485;80;20972;-79
2021/09/12 10:47:12;;;;;;;9.00;8.10;;;;;;;26.45;57.04;100271.89;2163997;80;21387;-79
2021/09/12 10:50:44;;;;;;;15.48;8.45;;;;;;;26.63;56.42;100274.66;2164774;80;20976;-79
2021/09/12 10:53:59;;;;;;;9.75;8.75;;;;;;;26.59;55.88;100278.48;2174264;80;20993;-81
2021/09/12 10:57:08;;;;;;;9.45;8.40;;;;;;;26.59;55.49;100267.59;2170829;80;20947;-79
2021/09/12 11:00:11;;;;;;;9.48;8.33;;;;;;;26.48;55.45;100271.34;2172976;80;21037;-81
2021/09/12 11:03:16;;;;;;;10.93;9.45;;;;;;;26.48;55.52;100262.64;2170766;80;21052;-79
2021/09/12 11:06:20;;;;;;;10.43;9.03;;;;;;;26.41;54.59;100255.81;2173150;80;20990;-79
2021/09/12 11:09:23;;;;;;;9.83;8.83;;;;;;;26.15;54.62;100255.73;2171671;80;21030;-78
2021/09/12 11:12:28;;;;;;;10.23;8.38;;;;;;;25.94;55.00;100247.52;2176826;80;21028;-82
2021/09/12 11:15:29;;;;;;;9.53;8.63;;;;;;;25.82;55.00;100249.61;2182436;80;20959;-80
2021/09/12 11:18:54;;;;;;;11.05;9.08;;;;;;;25.79;55.12;100246.58;2177406;80;20991;-81
2021/09/12 11:21:55;;;;;;;10.93;9.83;;;;;;;25.47;55.28;100243.43;2182017;80;20964;-79
2021/09/12 11:25:02;;;;;;;10.85;8.90;;;;;;;25.25;55.40;100243.55;2174340;80;21031;-81
2021/09/12 11:28:07;;;;;;;9.13;8.30;;;;;;;25.08;55.65;100244.21;2174990;80;21484;-80
2021/09/12 11:31:08;;;;;;;9.13;7.97;;;;;;;24.98;55.94;100243.06;2174700;80;22205;-80
2021/09/12 11:34:10;;;;;;;8.95;8.05;;;;;;;24.97;56.10;100237.33;2181303;80;21002;-79
2021/09/12 11:37:16;;;;;;;10.50;8.70;;;;;;;24.99;55.90;100232.47;2170336;80;21090;-79
2021/09/12 11:40:23;;;;;;;11.35;8.60;;;;;;;24.96;56.32;100228.92;2170860;80;20992;-80
2021/09/12 11:43:26;;;;;;;11.97;9.48;;;;;;;24.80;55.98;100225.80;2174510;80;21468;-79
2021/09/12 11:46:32;;;;;;;9.93;8.45;;;;;;;24.73;56.30;100213.81;2177224;80;21025;-83
2021/09/12 11:49:33;;;;;;;10.30;8.20;;;;;;;24.85;56.64;100216.89;2146995;80;21008;-80
2021/09/12 11:52:38;;;;;;;9.50;8.50;;;;;;;25.10;56.65;100215.73;2171689;80;21018;-81
2021/09/12 11:55:40;;;;;;;8.75;7.60;;;;;;;25.37;55.88;100207.53;2177147;80;21075;-78
2021/09/12 11:58:42;;;;;;;7.53;6.35;;;;;;;25.65;55.92;100205.48;2181321;80;20966;-81
2021/09/12 12:01:48;;;;;;;7.58;6.05;;;;;;;25.93;55.66;100204.27;2177959;80;21006;-80
2021/09/12 12:04:51;;;;;;;8.20;6.42;;;;;;;26.14;54.81;100203.27;2162999;80;21060;-78
2021/09/12 12:08:03;;;;;;;8.08;7.28;;;;;;;26.26;52.82;100200.84;2154421;80;21016;-80
2021/09/12 12:11:06;;;;;;;5.53;5.03;;;;;;;26.24;54.50;100194.30;2151988;80;21005;-78
2021/09/12 12:14:23;;;;;;;6.00;5.40;;;;;;;26.24;53.22;100190.77;2160901;80;21033;-79
2021/09/12 12:17:27;;;;;;;5.83;5.33;;;;;;;26.21;52.71;100186.69;2160905;80;21004;-81
2021/09/12 12:20:33;;;;;;;6.47;5.50;;;;;;;26.29;52.81;100182.08;2159353;80;20976;-78
2021/09/12 12:23:34;;;;;;;7.03;5.20;;;;;;;26.38;52.49;100183.20;2162082;80;21025;-79
2021/09/12 12:26:52;;;;;;;5.85;5.30;;;;;;;26.38;52.52;100176.92;2156574;80;20959;-80
2021/09/12 12:30:00;;;;;;;5.45;4.95;;;;;;;26.49;51.83;100172.31;2160017;80;21015;-78
2021/09/12 12:33:02;;;;;;;6.20;5.60;;;;;;;26.54;51.95;100174.52;2152432;80;21072;-76
2021/09/12 12:36:14;;;;;;;6.53;5.87;;;;;;;26.64;51.78;100175.09;2141801;80;21034;-78
2021/09/12 12:39:16;;;;;;;5.30;4.80;;;;;;;26.69;51.22;100176.42;2153289;80;21051;-78
2021/09/12 12:42:17;;;;;;;5.70;5.10;;;;;;;26.65;51.37;100178.63;2156805;80;21047;-80
2021/09/12 12:45:30;;;;;;;5.95;5.45;;;;;;;26.40;51.01;100180.20;2159694;80;20982;-78
2021/09/12 12:48:33;;;;;;;8.20;5.42;;;;;;;26.23;51.41;100173.64;2153983;80;21012;-77
2021/09/12 12:51:35;;;;;;;5.97;5.33;;;;;;;26.08;51.58;100173.08;2157150;80;21566;-78
2021/09/12 12:54:38;;;;;;;9.53;5.30;;;;;;;25.85;51.73;100171.66;2145517;80;20942;-79
2021/09/12 12:57:39;;;;;;;5.85;5.15;;;;;;;25.63;52.11;100172.35;2158345;80;21614;-78
2021/09/12 13:00:43;;;;;;;14.20;5.28;;;;;;;25.63;52.01;100164.20;2139646;80;21443;-79
2021/09/12 13:03:44;;;;;;;5.78;5.17;;;;;;;25.53;51.97;100169.58;2165628;80;21005;-77
2021/09/12 13:06:46;;;;;;;7.10;5.62;;;;;;;25.64;52.50;100161.75;2168001;80;21031;-76
2021/09/12 13:09:47;;;;;;;5.75;5.25;;;;;;;25.78;52.23;100165.60;2164089;80;21608;-79
2021/09/12 13:12:48;;;;;;;6.80;5.72;;;;;;;25.88;52.18;100158.08;2162788;80;21020;-78
2021/09/12 13:15:51;;;;;;;6.30;5.70;;;;;;;25.79;51.89;100154.19;2162538;79;21067;-77
2021/09/12 13:18:52;;;;;;;7.08;5.70;;;;;;;25.63;51.71;100155.50;2162915;80;21004;-79
2021/09/12 13:21:53;;;;;;;6.33;5.70;;;;;;;25.59;52.15;100159.81;2165382;80;20965;-80
2021/09/12 13:24:55;;;;;;;7.83;6.20;;;;;;;25.52;52.29;100156.54;2169360;80;21590;-78
2021/09/12 13:27:58;;;;;;;6.10;5.50;;;;;;;25.41;52.23;100160.29;2163036;80;20969;-77
2021/09/12 13:31:00;;;;;;;6.58;5.97;;;;;;;25.29;52.16;100156.43;2160590;80;20994;-78
2021/09/12 13:34:01;;;;;;;6.25;5.65;;;;;;;25.13;52.79;100154.67;2164403;80;20994;-77
2021/09/12 13:37:03;;;;;;;6.20;5.58;;;;;;;25.04;52.73;100151.63;2163861;80;21044;-80
2021/09/12 13:40:07;;;;;;;7.55;5.65;;;;;;;25.03;52.90;100151.34;2165168;80;20996;-78
2021/09/12 13:43:08;;;;;;;5.95;5.17;;;;;;;25.00;52.86;100142.36;2165618;80;20986;-80
2021/09/12 13:46:10;;;;;;;6.60;5.17;;;;;;;24.94;53.13;100142.86;2169067;80;21012;-79
2021/09/12 13:49:12;;;;;;;9.28;6.00;;;;;;;24.85;52.99;100143.62;2164315;80;21079;-78
2021/09/12 13:52:13;;;;;;;5.35;4.87;;;;;;;24.66;53.16;100136.42;2163231;80;21092;-77
2021/09/12 13:55:14;;;;;;;6.53;5.42;;;;;;;24.54;53.13;100132.00;2167719;80;21016;-79
2021/09/12 13:58:16;;;;;;;5.60;5.10;;;;;;;24.43;53.29;100137.05;2140248;80;21003;-79
2021/09/12 14:01:17;;;;;;;5.58;5.08;;;;;;;24.36;53.26;100132.36;2164188;80;20938;-82